Hughes, AK

3:09 PM AKST on February 13, 2016 (GMT -0900)
Indian Mountain | | Change Station
CLOSE
Current Station
Airport
Location: Indian Mountain,
Elevation: 1276 ft
Nearby Weather Stations

Elev 1276 ft 65.99 °N, 153.70 °W | Updated 3 days ago

Partly Cloudy
Partly Cloudy
10 °F
Feels Like 1 °F
N
6
Wind Variable Wind from ENE
Gusts mph

Today
High -- | Low -- °F
--% Chance of Precip.
Yesterday
High -- | Low -- °F
Precip. -- in
Pressure 30.03 in
Visibility 10.0 miles
Clouds Clear
Windchill 1 °F
Dew Point 6 °F
Humidity 83%
Rainfall 0.00 in
Snow Depth Not available.
9:28 AM 5:31 PM
Waxing Crescent, 35% visible
METAR PAIM 102155Z VRB06KT 10SM CLR M14/M18 A2989 RMK AO2A SLP167 LSR13UP09DN
Pressure 30.03 in
Visibility 10.0 miles
Clouds Clear
Windchill 1 °F
Dew Point 6 °F
Humidity 83%
Rainfall 0.00 in
Snow Depth Not available.
9:28 AM 5:31 PM
Waxing Crescent, 35% visible
METAR PAIM 102155Z VRB06KT 10SM CLR M14/M18 A2989 RMK AO2A SLP167 LSR13UP09DN

10-Day Weather Forecast

Almanac

Astronomy

Feb. 13, 2016 Rise Set
Actual Time
Civil Twilight
Nautical Twilight
Astronomical Twilight
Moon
Length of Visible Light
Length of Day
Tomorrow will be .
, % of the Moon is Illuminated

Today's Extremes

State Highs State Lows

Community

WunderPhotos

Upload Photos

1,892,709 photos uploaded!

WunderBlog® & News

Nearby

Air Quality

  Air Quality AQ Index Pollutant
Not available.

Snow Depth

Station Depth Elevation

Earthquake Activity

City Distance Mag. Time & Date
Minimum magnitude displayed is 2.5.

Coastal Water Temperatures

Place Temperature

Stations

Nearby Weather Stations

Station Location Temp. Windchill Dew Point Humidity Wind Precip. Elev Updated Type
                   

Watches & Warnings

There are currently no watches in effect.